Weather at AeroSidonia

Public forecast

Using degrees Celsius for public forecast. Weather courtesy of forecast.io.

Closest aviation weather report (METAR) to AeroSidonia

Closest report is Jerez Airport, 19.2 nm (35.5 km) NNW.

2024/06/17 11:00 (retrieved 12 minutes ago)

LEJR 171100Z VRB04KT CAVOK 28/17 Q1012

Closest aviation forecast (TAF) to AeroSidonia

Closest forecast is Jerez Airport, 19.2 nm (35.5 km) NNW.

2024/06/17 09:27 (retrieved 2 hours ago)

TAF LEJR 170800Z 1709/1809 VRB02KT CAVOK TX31/1714Z TN15/1806Z BECMG 1711/1713 26010KT BECMG 1719/1721 19005KT PROB40 TEMPO 1800/1809 2000 BR BKN014